sensor_id;sensor_type;location;lat;lon;timestamp;temperature;humidity
70336;SHT31;57756;47.408;18.940;2023-12-20T00:01:35;-0.49;99.99
70336;SHT31;57756;47.408;18.940;2023-12-20T00:04:00;-0.44;99.99
70336;SHT31;57756;47.408;18.940;2023-12-20T00:06:25;-0.34;99.99
70336;SHT31;57756;47.408;18.940;2023-12-20T00:08:51;-0.39;99.99
70336;SHT31;57756;47.408;18.940;2023-12-20T00:11:17;-0.41;99.99
70336;SHT31;57756;47.408;18.940;2023-12-20T00:13:42;-0.39;99.99
70336;SHT31;57756;47.408;18.940;2023-12-20T00:16:07;-0.41;99.99
70336;SHT31;57756;47.408;18.940;2023-12-20T00:18:33;-0.39;99.99
70336;SHT31;57756;47.408;18.940;2023-12-20T00:20:58;-0.44;99.99
70336;SHT31;57756;47.408;18.940;2023-12-20T00:23:23;-0.37;99.99
70336;SHT31;57756;47.408;18.940;2023-12-20T00:25:49;-0.41;99.99
70336;SHT31;57756;47.408;18.940;2023-12-20T00:28:14;-0.38;99.99
70336;SHT31;57756;47.408;18.940;2023-12-20T00:30:40;-0.34;99.99
70336;SHT31;57756;47.408;18.940;2023-12-20T00:33:05;-0.34;99.99
70336;SHT31;57756;47.408;18.940;2023-12-20T00:35:30;-0.44;99.99
70336;SHT31;57756;47.408;18.940;2023-12-20T00:37:56;-0.39;99.99
70336;SHT31;57756;47.408;18.940;2023-12-20T00:40:21;-0.32;99.99
70336;SHT31;57756;47.408;18.940;2023-12-20T00:42:47;-0.41;99.99
70336;SHT31;57756;47.408;18.940;2023-12-20T00:45:13;-0.37;99.99
70336;SHT31;57756;47.408;18.940;2023-12-20T00:47:39;-0.42;99.99
70336;SHT31;57756;47.408;18.940;2023-12-20T00:50:05;-0.39;99.99
70336;SHT31;57756;47.408;18.940;2023-12-20T00:52:31;-0.39;99.99
70336;SHT31;57756;47.408;18.940;2023-12-20T00:54:56;-0.48;99.99
70336;SHT31;57756;47.408;18.940;2023-12-20T00:57:22;-0.44;99.99
70336;SHT31;57756;47.408;18.940;2023-12-20T00:59:47;-0.41;99.99
70336;SHT31;57756;47.408;18.940;2023-12-20T01:02:13;-0.44;99.99
70336;SHT31;57756;47.408;18.940;2023-12-20T01:04:38;-0.42;99.99
70336;SHT31;57756;47.408;18.940;2023-12-20T01:07:04;-0.68;99.99
70336;SHT31;57756;47.408;18.940;2023-12-20T01:09:29;-0.61;99.99
70336;SHT31;57756;47.408;18.940;2023-12-20T01:11:54;-0.62;99.99
70336;SHT31;57756;47.408;18.940;2023-12-20T01:14:20;-0.62;99.99
70336;SHT31;57756;47.408;18.940;2023-12-20T01:16:45;-0.68;99.99
70336;SHT31;57756;47.408;18.940;2023-12-20T01:19:11;-0.59;99.99
70336;SHT31;57756;47.408;18.940;2023-12-20T01:21:36;-0.52;99.99
70336;SHT31;57756;47.408;18.940;2023-12-20T01:24:02;-0.54;99.99
70336;SHT31;57756;47.408;18.940;2023-12-20T01:26:27;-0.49;99.99
70336;SHT31;57756;47.408;18.940;2023-12-20T01:28:53;-0.52;99.99
70336;SHT31;57756;47.408;18.940;2023-12-20T01:31:18;-0.49;99.99
70336;SHT31;57756;47.408;18.940;2023-12-20T01:33:44;-0.49;99.99
70336;SHT31;57756;47.408;18.940;2023-12-20T01:36:09;-0.55;99.99
70336;SHT31;57756;47.408;18.940;2023-12-20T01:38:35;-0.45;99.99
70336;SHT31;57756;47.408;18.940;2023-12-20T01:41:00;-0.49;99.99
70336;SHT31;57756;47.408;18.940;2023-12-20T01:43:26;-0.42;99.99
70336;SHT31;57756;47.408;18.940;2023-12-20T01:45:51;-0.42;99.99
70336;SHT31;57756;47.408;18.940;2023-12-20T01:48:18;-0.44;99.99
70336;SHT31;57756;47.408;18.940;2023-12-20T01:50:45;-0.42;99.99
70336;SHT31;57756;47.408;18.940;2023-12-20T01:53:11;-0.48;99.99
70336;SHT31;57756;47.408;18.940;2023-12-20T01:55:39;-0.55;99.99
70336;SHT31;57756;47.408;18.940;2023-12-20T01:58:06;-0.49;99.99
70336;SHT31;57756;47.408;18.940;2023-12-20T02:00:32;-0.48;99.99
70336;SHT31;57756;47.408;18.940;2023-12-20T02:03:01;-0.47;99.99
70336;SHT31;57756;47.408;18.940;2023-12-20T02:05:27;-0.48;99.99
70336;SHT31;57756;47.408;18.940;2023-12-20T02:07:53;-0.42;99.99
70336;SHT31;57756;47.408;18.940;2023-12-20T02:10:18;-0.48;99.99
70336;SHT31;57756;47.408;18.940;2023-12-20T02:12:44;-0.45;99.99
70336;SHT31;57756;47.408;18.940;2023-12-20T02:15:09;-0.48;99.99
70336;SHT31;57756;47.408;18.940;2023-12-20T02:17:35;-0.55;99.99
70336;SHT31;57756;47.408;18.940;2023-12-20T02:20:01;-0.58;99.99
70336;SHT31;57756;47.408;18.940;2023-12-20T02:22:26;-0.56;99.99
70336;SHT31;57756;47.408;18.940;2023-12-20T02:24:52;-0.61;99.99
70336;SHT31;57756;47.408;18.940;2023-12-20T02:27:18;-0.49;99.99
70336;SHT31;57756;47.408;18.940;2023-12-20T02:29:46;-0.61;99.99
70336;SHT31;57756;47.408;18.940;2023-12-20T02:32:12;-0.61;99.99
70336;SHT31;57756;47.408;18.940;2023-12-20T02:34:38;-0.55;99.99
70336;SHT31;57756;47.408;18.940;2023-12-20T02:37:03;-0.64;99.99
70336;SHT31;57756;47.408;18.940;2023-12-20T02:39:30;-0.68;99.99
70336;SHT31;57756;47.408;18.940;2023-12-20T02:41:55;-0.69;99.99
70336;SHT31;57756;47.408;18.940;2023-12-20T02:44:21;-0.64;99.99
70336;SHT31;57756;47.408;18.940;2023-12-20T02:46:46;-0.68;99.99
70336;SHT31;57756;47.408;18.940;2023-12-20T02:49:11;-0.75;99.99
70336;SHT31;57756;47.408;18.940;2023-12-20T02:51:37;-0.68;99.99
70336;SHT31;57756;47.408;18.940;2023-12-20T02:54:05;-0.58;99.99
70336;SHT31;57756;47.408;18.940;2023-12-20T02:56:32;-0.59;99.99
70336;SHT31;57756;47.408;18.940;2023-12-20T02:58:57;-0.61;99.99
70336;SHT31;57756;47.408;18.940;2023-12-20T03:01:23;-0.72;99.99
70336;SHT31;57756;47.408;18.940;2023-12-20T03:03:48;-0.72;99.99
70336;SHT31;57756;47.408;18.940;2023-12-20T03:06:17;-0.65;99.99
70336;SHT31;57756;47.408;18.940;2023-12-20T03:08:44;-0.69;99.99
70336;SHT31;57756;47.408;18.940;2023-12-20T03:11:09;-0.70;99.99
70336;SHT31;57756;47.408;18.940;2023-12-20T03:13:35;-0.69;99.99
70336;SHT31;57756;47.408;18.940;2023-12-20T03:16:00;-0.62;99.99
70336;SHT31;57756;47.408;18.940;2023-12-20T03:18:25;-0.69;99.99
70336;SHT31;57756;47.408;18.940;2023-12-20T03:20:53;-0.68;99.99
70336;SHT31;57756;47.408;18.940;2023-12-20T03:23:18;-0.65;99.99
70336;SHT31;57756;47.408;18.940;2023-12-20T03:25:44;-0.61;99.99
70336;SHT31;57756;47.408;18.940;2023-12-20T03:28:09;-0.61;99.99
70336;SHT31;57756;47.408;18.940;2023-12-20T03:30:35;-0.59;99.99
70336;SHT31;57756;47.408;18.940;2023-12-20T03:33:00;-0.68;99.99
70336;SHT31;57756;47.408;18.940;2023-12-20T03:35:25;-0.65;99.99
70336;SHT31;57756;47.408;18.940;2023-12-20T03:37:51;-0.59;99.99
70336;SHT31;57756;47.408;18.940;2023-12-20T03:40:16;-0.55;99.99
70336;SHT31;57756;47.408;18.940;2023-12-20T03:42:42;-0.54;99.99
70336;SHT31;57756;47.408;18.940;2023-12-20T03:45:08;-0.59;99.99
70336;SHT31;57756;47.408;18.940;2023-12-20T03:47:33;-0.62;99.99
70336;SHT31;57756;47.408;18.940;2023-12-20T03:49:58;-0.54;99.99
70336;SHT31;57756;47.408;18.940;2023-12-20T03:52:24;-0.52;99.99
70336;SHT31;57756;47.408;18.940;2023-12-20T03:54:49;-0.42;99.99
70336;SHT31;57756;47.408;18.940;2023-12-20T03:57:15;-0.58;99.99
70336;SHT31;57756;47.408;18.940;2023-12-20T03:59:40;-0.62;99.99
70336;SHT31;57756;47.408;18.940;2023-12-20T04:02:06;-0.61;99.99
70336;SHT31;57756;47.408;18.940;2023-12-20T04:04:31;-0.54;99.99
70336;SHT31;57756;47.408;18.940;2023-12-20T04:06:57;-0.47;99.99
70336;SHT31;57756;47.408;18.940;2023-12-20T04:09:22;-0.48;99.99
70336;SHT31;57756;47.408;18.940;2023-12-20T04:11:47;-0.55;99.99
70336;SHT31;57756;47.408;18.940;2023-12-20T04:14:13;-0.65;99.99
70336;SHT31;57756;47.408;18.940;2023-12-20T04:16:38;-0.61;99.99
70336;SHT31;57756;47.408;18.940;2023-12-20T04:19:04;-0.58;99.99
70336;SHT31;57756;47.408;18.940;2023-12-20T04:21:30;-0.56;99.99
70336;SHT31;57756;47.408;18.940;2023-12-20T04:23:55;-0.52;99.99
70336;SHT31;57756;47.408;18.940;2023-12-20T04:26:20;-0.49;99.99
70336;SHT31;57756;47.408;18.940;2023-12-20T04:28:46;-0.47;99.99
70336;SHT31;57756;47.408;18.940;2023-12-20T04:31:11;-0.42;99.99
70336;SHT31;57756;47.408;18.940;2023-12-20T04:33:36;-0.56;99.99
70336;SHT31;57756;47.408;18.940;2023-12-20T04:36:02;-0.42;99.99
70336;SHT31;57756;47.408;18.940;2023-12-20T04:38:28;-0.45;99.99
70336;SHT31;57756;47.408;18.940;2023-12-20T04:40:54;-0.48;99.99
70336;SHT31;57756;47.408;18.940;2023-12-20T04:43:19;-0.54;99.99
70336;SHT31;57756;47.408;18.940;2023-12-20T04:45:44;-0.59;99.99
70336;SHT31;57756;47.408;18.940;2023-12-20T04:48:10;-0.64;99.99
70336;SHT31;57756;47.408;18.940;2023-12-20T04:50:35;-0.62;99.99
70336;SHT31;57756;47.408;18.940;2023-12-20T04:53:01;-0.59;99.99
70336;SHT31;57756;47.408;18.940;2023-12-20T04:55:26;-0.59;99.99
70336;SHT31;57756;47.408;18.940;2023-12-20T04:57:51;-0.54;99.99
70336;SHT31;57756;47.408;18.940;2023-12-20T05:00:17;-0.72;99.99
70336;SHT31;57756;47.408;18.940;2023-12-20T05:02:42;-0.70;99.99
70336;SHT31;57756;47.408;18.940;2023-12-20T05:05:08;-0.69;99.99
70336;SHT31;57756;47.408;18.940;2023-12-20T05:07:33;-0.61;99.99
70336;SHT31;57756;47.408;18.940;2023-12-20T05:09:59;-0.62;99.99
70336;SHT31;57756;47.408;18.940;2023-12-20T05:12:24;-0.66;99.99
70336;SHT31;57756;47.408;18.940;2023-12-20T05:14:52;-0.70;99.99
70336;SHT31;57756;47.408;18.940;2023-12-20T05:17:17;-0.61;99.99
70336;SHT31;57756;47.408;18.940;2023-12-20T05:19:43;-0.58;99.99
70336;SHT31;57756;47.408;18.940;2023-12-20T05:22:08;-0.62;99.99
70336;SHT31;57756;47.408;18.940;2023-12-20T05:24:34;-0.69;99.99
70336;SHT31;57756;47.408;18.940;2023-12-20T05:26:59;-0.76;99.99
70336;SHT31;57756;47.408;18.940;2023-12-20T05:29:25;-0.77;99.99
70336;SHT31;57756;47.408;18.940;2023-12-20T05:31:50;-0.66;99.99
70336;SHT31;57756;47.408;18.940;2023-12-20T05:34:15;-0.65;99.99
70336;SHT31;57756;47.408;18.940;2023-12-20T05:36:41;-0.64;99.99
70336;SHT31;57756;47.408;18.940;2023-12-20T05:39:06;-0.64;99.99
70336;SHT31;57756;47.408;18.940;2023-12-20T05:41:33;-0.58;99.99
70336;SHT31;57756;47.408;18.940;2023-12-20T05:43:58;-0.56;99.99
70336;SHT31;57756;47.408;18.940;2023-12-20T05:46:24;-0.54;99.99
70336;SHT31;57756;47.408;18.940;2023-12-20T05:48:50;-0.55;99.99
70336;SHT31;57756;47.408;18.940;2023-12-20T05:51:16;-0.55;99.99
70336;SHT31;57756;47.408;18.940;2023-12-20T05:53:42;-0.49;99.99
70336;SHT31;57756;47.408;18.940;2023-12-20T05:56:07;-0.49;99.99
70336;SHT31;57756;47.408;18.940;2023-12-20T05:58:33;-0.59;99.99
70336;SHT31;57756;47.408;18.940;2023-12-20T06:00:59;-0.59;99.99
70336;SHT31;57756;47.408;18.940;2023-12-20T06:03:24;-0.59;99.99
70336;SHT31;57756;47.408;18.940;2023-12-20T06:05:49;-0.58;99.99
70336;SHT31;57756;47.408;18.940;2023-12-20T06:08:15;-0.64;99.99
70336;SHT31;57756;47.408;18.940;2023-12-20T06:10:40;-0.69;99.99
70336;SHT31;57756;47.408;18.940;2023-12-20T06:13:06;-0.69;99.99
70336;SHT31;57756;47.408;18.940;2023-12-20T06:15:32;-0.69;99.99
70336;SHT31;57756;47.408;18.940;2023-12-20T06:17:57;-0.73;99.99
70336;SHT31;57756;47.408;18.940;2023-12-20T06:20:23;-0.64;99.99
70336;SHT31;57756;47.408;18.940;2023-12-20T06:22:48;-0.58;99.99
70336;SHT31;57756;47.408;18.940;2023-12-20T06:25:14;-0.59;99.99
70336;SHT31;57756;47.408;18.940;2023-12-20T06:27:39;-0.76;99.99
70336;SHT31;57756;47.408;18.940;2023-12-20T06:30:07;-0.72;99.99
70336;SHT31;57756;47.408;18.940;2023-12-20T06:32:32;-0.68;99.99
70336;SHT31;57756;47.408;18.940;2023-12-20T06:34:59;-0.61;99.99
70336;SHT31;57756;47.408;18.940;2023-12-20T06:37:24;-0.61;99.99
70336;SHT31;57756;47.408;18.940;2023-12-20T06:39:50;-0.58;99.99
70336;SHT31;57756;47.408;18.940;2023-12-20T06:42:15;-0.58;99.99
70336;SHT31;57756;47.408;18.940;2023-12-20T06:44:41;-0.52;99.99
70336;SHT31;57756;47.408;18.940;2023-12-20T06:47:06;-0.55;99.99
70336;SHT31;57756;47.408;18.940;2023-12-20T06:49:32;-0.47;99.99
70336;SHT31;57756;47.408;18.940;2023-12-20T06:51:57;-0.52;99.99
70336;SHT31;57756;47.408;18.940;2023-12-20T06:54:23;-0.65;99.99
70336;SHT31;57756;47.408;18.940;2023-12-20T06:56:48;-0.56;99.99
70336;SHT31;57756;47.408;18.940;2023-12-20T06:59:13;-0.62;99.99
70336;SHT31;57756;47.408;18.940;2023-12-20T07:01:39;-0.62;99.99
70336;SHT31;57756;47.408;18.940;2023-12-20T07:04:04;-0.64;99.99
70336;SHT31;57756;47.408;18.940;2023-12-20T07:06:30;-0.58;99.99
70336;SHT31;57756;47.408;18.940;2023-12-20T07:08:55;-0.56;99.99
70336;SHT31;57756;47.408;18.940;2023-12-20T07:11:20;-0.56;99.99
70336;SHT31;57756;47.408;18.940;2023-12-20T07:13:46;-0.56;99.99
70336;SHT31;57756;47.408;18.940;2023-12-20T07:16:11;-0.52;99.99
70336;SHT31;57756;47.408;18.940;2023-12-20T07:18:37;-0.52;99.99
70336;SHT31;57756;47.408;18.940;2023-12-20T07:21:03;-0.55;99.99
70336;SHT31;57756;47.408;18.940;2023-12-20T07:23:28;-0.49;99.99
70336;SHT31;57756;47.408;18.940;2023-12-20T07:25:54;-0.47;99.99
70336;SHT31;57756;47.408;18.940;2023-12-20T07:28:19;-0.42;99.99
70336;SHT31;57756;47.408;18.940;2023-12-20T07:30:44;-0.51;99.99
70336;SHT31;57756;47.408;18.940;2023-12-20T07:33:10;-0.45;99.99
70336;SHT31;57756;47.408;18.940;2023-12-20T07:35:37;-0.44;99.99
70336;SHT31;57756;47.408;18.940;2023-12-20T07:38:03;-0.38;99.99
70336;SHT31;57756;47.408;18.940;2023-12-20T07:40:28;-0.32;99.99
70336;SHT31;57756;47.408;18.940;2023-12-20T07:42:54;-0.29;99.99
70336;SHT31;57756;47.408;18.940;2023-12-20T07:45:19;-0.27;99.99
70336;SHT31;57756;47.408;18.940;2023-12-20T07:47:44;-0.27;99.99
70336;SHT31;57756;47.408;18.940;2023-12-20T07:50:10;-0.28;99.99
70336;SHT31;57756;47.408;18.940;2023-12-20T07:52:35;-0.29;99.99
70336;SHT31;57756;47.408;18.940;2023-12-20T07:55:01;-0.27;99.99
70336;SHT31;57756;47.408;18.940;2023-12-20T07:57:29;-0.28;99.99
70336;SHT31;57756;47.408;18.940;2023-12-20T07:59:55;-0.28;99.99
70336;SHT31;57756;47.408;18.940;2023-12-20T08:02:20;-0.28;99.99
70336;SHT31;57756;47.408;18.940;2023-12-20T08:04:45;-0.17;99.99
70336;SHT31;57756;47.408;18.940;2023-12-20T08:07:11;-0.17;99.99
70336;SHT31;57756;47.408;18.940;2023-12-20T08:09:37;-0.13;99.99
70336;SHT31;57756;47.408;18.940;2023-12-20T08:12:03;-0.18;99.99
70336;SHT31;57756;47.408;18.940;2023-12-20T08:14:28;-0.11;99.99
70336;SHT31;57756;47.408;18.940;2023-12-20T08:16:54;-0.04;99.99
70336;SHT31;57756;47.408;18.940;2023-12-20T08:19:19;-0.03;99.99
70336;SHT31;57756;47.408;18.940;2023-12-20T08:21:44;-0.01;99.99
70336;SHT31;57756;47.408;18.940;2023-12-20T08:24:10;-0.01;99.99
70336;SHT31;57756;47.408;18.940;2023-12-20T08:26:35;-0.09;99.99
70336;SHT31;57756;47.408;18.940;2023-12-20T08:29:00;-0.06;99.99
70336;SHT31;57756;47.408;18.940;2023-12-20T08:31:26;-0.04;99.99
70336;SHT31;57756;47.408;18.940;2023-12-20T08:33:52;0.06;99.99
70336;SHT31;57756;47.408;18.940;2023-12-20T08:36:19;0.09;99.99
70336;SHT31;57756;47.408;18.940;2023-12-20T08:38:46;0.14;99.99
70336;SHT31;57756;47.408;18.940;2023-12-20T08:41:12;0.10;99.99
70336;SHT31;57756;47.408;18.940;2023-12-20T08:43:37;0.13;99.99
70336;SHT31;57756;47.408;18.940;2023-12-20T08:46:05;0.00;99.99
70336;SHT31;57756;47.408;18.940;2023-12-20T08:48:31;0.07;99.99
70336;SHT31;57756;47.408;18.940;2023-12-20T08:50:56;0.21;99.99
70336;SHT31;57756;47.408;18.940;2023-12-20T08:53:21;0.27;99.99
70336;SHT31;57756;47.408;18.940;2023-12-20T08:55:47;0.40;99.99
70336;SHT31;57756;47.408;18.940;2023-12-20T08:58:13;0.41;99.99
70336;SHT31;57756;47.408;18.940;2023-12-20T09:00:38;0.51;99.99
70336;SHT31;57756;47.408;18.940;2023-12-20T09:03:04;0.45;99.99
70336;SHT31;57756;47.408;18.940;2023-12-20T09:05:30;0.42;99.99
70336;SHT31;57756;47.408;18.940;2023-12-20T09:07:55;0.51;99.99
70336;SHT31;57756;47.408;18.940;2023-12-20T09:10:21;0.44;99.99
70336;SHT31;57756;47.408;18.940;2023-12-20T09:12:52;0.52;99.99
70336;SHT31;57756;47.408;18.940;2023-12-20T09:15:22;0.59;99.99
70336;SHT31;57756;47.408;18.940;2023-12-20T09:17:48;0.55;99.99
70336;SHT31;57756;47.408;18.940;2023-12-20T09:20:13;0.59;99.99
70336;SHT31;57756;47.408;18.940;2023-12-20T09:22:39;0.66;99.99
70336;SHT31;57756;47.408;18.940;2023-12-20T09:25:05;0.80;99.99
70336;SHT31;57756;47.408;18.940;2023-12-20T09:27:30;0.85;99.99
70336;SHT31;57756;47.408;18.940;2023-12-20T09:29:56;0.85;99.99
70336;SHT31;57756;47.408;18.940;2023-12-20T09:32:22;0.76;99.99
70336;SHT31;57756;47.408;18.940;2023-12-20T09:34:47;0.87;99.99
70336;SHT31;57756;47.408;18.940;2023-12-20T09:37:13;0.85;99.99
70336;SHT31;57756;47.408;18.940;2023-12-20T09:39:38;0.89;99.99
70336;SHT31;57756;47.408;18.940;2023-12-20T09:42:04;1.04;99.99
70336;SHT31;57756;47.408;18.940;2023-12-20T09:44:31;1.04;99.99
70336;SHT31;57756;47.408;18.940;2023-12-20T09:46:58;1.16;99.99
70336;SHT31;57756;47.408;18.940;2023-12-20T09:49:27;1.28;99.99
70336;SHT31;57756;47.408;18.940;2023-12-20T09:51:53;1.38;99.99
70336;SHT31;57756;47.408;18.940;2023-12-20T09:54:20;1.37;99.99
70336;SHT31;57756;47.408;18.940;2023-12-20T09:56:46;1.55;99.99
70336;SHT31;57756;47.408;18.940;2023-12-20T09:59:12;1.52;99.99
70336;SHT31;57756;47.408;18.940;2023-12-20T10:01:39;1.54;99.99
70336;SHT31;57756;47.408;18.940;2023-12-20T10:04:06;1.58;99.99
70336;SHT31;57756;47.408;18.940;2023-12-20T10:06:37;1.68;99.99
70336;SHT31;57756;47.408;18.940;2023-12-20T10:09:03;1.63;99.99
70336;SHT31;57756;47.408;18.940;2023-12-20T10:11:29;1.69;99.99
70336;SHT31;57756;47.408;18.940;2023-12-20T10:14:01;1.78;99.99
70336;SHT31;57756;47.408;18.940;2023-12-20T10:16:27;1.83;99.99
70336;SHT31;57756;47.408;18.940;2023-12-20T10:18:56;2.10;99.99
70336;SHT31;57756;47.408;18.940;2023-12-20T10:21:22;2.21;99.99
70336;SHT31;57756;47.408;18.940;2023-12-20T10:23:48;2.24;99.99
70336;SHT31;57756;47.408;18.940;2023-12-20T10:26:21;2.27;99.99
70336;SHT31;57756;47.408;18.940;2023-12-20T10:28:50;2.47;99.99
70336;SHT31;57756;47.408;18.940;2023-12-20T10:31:32;2.71;99.62
70336;SHT31;57756;47.408;18.940;2023-12-20T10:33:58;3.00;99.23
70336;SHT31;57756;47.408;18.940;2023-12-20T10:36:26;3.27;97.94
70336;SHT31;57756;47.408;18.940;2023-12-20T10:38:53;3.98;97.59
70336;SHT31;57756;47.408;18.940;2023-12-20T10:41:31;4.14;96.48
70336;SHT31;57756;47.408;18.940;2023-12-20T10:43:59;4.77;95.77
70336;SHT31;57756;47.408;18.940;2023-12-20T10:46:26;5.46;94.26
70336;SHT31;57756;47.408;18.940;2023-12-20T10:48:56;5.87;92.61
70336;SHT31;57756;47.408;18.940;2023-12-20T10:51:22;6.56;91.52
70336;SHT31;57756;47.408;18.940;2023-12-20T10:53:49;7.04;89.39
70336;SHT31;57756;47.408;18.940;2023-12-20T10:56:18;7.15;88.13
70336;SHT31;57756;47.408;18.940;2023-12-20T10:58:45;7.08;88.56
70336;SHT31;57756;47.408;18.940;2023-12-20T11:01:13;6.99;89.25
70336;SHT31;57756;47.408;18.940;2023-12-20T11:03:43;6.49;90.55
70336;SHT31;57756;47.408;18.940;2023-12-20T11:08:53;6.13;93.21
70336;SHT31;57756;47.408;18.940;2023-12-20T11:14:20;5.81;93.58
70336;SHT31;57756;47.408;18.940;2023-12-20T11:16:47;5.82;94.47
70336;SHT31;57756;47.408;18.940;2023-12-20T11:19:13;5.71;94.59
70336;SHT31;57756;47.408;18.940;2023-12-20T11:21:41;5.63;94.14
70336;SHT31;57756;47.408;18.940;2023-12-20T11:24:07;5.46;94.45
70336;SHT31;57756;47.408;18.940;2023-12-20T11:26:33;5.33;94.10
70336;SHT31;57756;47.408;18.940;2023-12-20T11:31:56;5.33;94.39
70336;SHT31;57756;47.408;18.940;2023-12-20T11:34:21;5.27;94.47
70336;SHT31;57756;47.408;18.940;2023-12-20T11:36:47;5.27;95.02
70336;SHT31;57756;47.408;18.940;2023-12-20T11:39:20;5.32;94.41
70336;SHT31;57756;47.408;18.940;2023-12-20T11:41:46;5.30;94.95
70336;SHT31;57756;47.408;18.940;2023-12-20T11:44:11;5.29;95.13
70336;SHT31;57756;47.408;18.940;2023-12-20T11:46:37;5.32;94.99
70336;SHT31;57756;47.408;18.940;2023-12-20T11:49:02;5.26;94.94
70336;SHT31;57756;47.408;18.940;2023-12-20T11:51:28;5.32;95.75
70336;SHT31;57756;47.408;18.940;2023-12-20T11:53:53;5.30;95.64
70336;SHT31;57756;47.408;18.940;2023-12-20T11:56:19;5.34;95.68
70336;SHT31;57756;47.408;18.940;2023-12-20T11:58:44;5.34;95.78
70336;SHT31;57756;47.408;18.940;2023-12-20T12:01:09;5.36;96.31
70336;SHT31;57756;47.408;18.940;2023-12-20T12:03:36;5.39;96.26
70336;SHT31;57756;47.408;18.940;2023-12-20T12:06:02;5.44;96.64
70336;SHT31;57756;47.408;18.940;2023-12-20T12:08:29;5.54;96.69
70336;SHT31;57756;47.408;18.940;2023-12-20T12:10:54;5.60;96.78
70336;SHT31;57756;47.408;18.940;2023-12-20T12:13:20;5.74;96.99
70336;SHT31;57756;47.408;18.940;2023-12-20T12:15:45;5.85;96.98
70336;SHT31;57756;47.408;18.940;2023-12-20T12:18:16;5.94;96.60
70336;SHT31;57756;47.408;18.940;2023-12-20T12:20:41;5.99;96.69
70336;SHT31;57756;47.408;18.940;2023-12-20T12:23:07;6.09;96.31
70336;SHT31;57756;47.408;18.940;2023-12-20T12:25:35;6.06;96.25
70336;SHT31;57756;47.408;18.940;2023-12-20T12:28:02;6.13;96.39
70336;SHT31;57756;47.408;18.940;2023-12-20T12:30:28;6.23;96.08
70336;SHT31;57756;47.408;18.940;2023-12-20T12:32:55;6.23;96.22
70336;SHT31;57756;47.408;18.940;2023-12-20T12:35:21;6.26;95.97
70336;SHT31;57756;47.408;18.940;2023-12-20T12:37:46;6.26;95.60
70336;SHT31;57756;47.408;18.940;2023-12-20T12:40:14;6.23;95.70
70336;SHT31;57756;47.408;18.940;2023-12-20T12:42:40;6.23;95.39
70336;SHT31;57756;47.408;18.940;2023-12-20T12:45:07;6.23;95.34
70336;SHT31;57756;47.408;18.940;2023-12-20T12:47:33;6.11;95.38
70336;SHT31;57756;47.408;18.940;2023-12-20T12:49:58;6.05;95.62
70336;SHT31;57756;47.408;18.940;2023-12-20T12:52:24;6.01;95.25
70336;SHT31;57756;47.408;18.940;2023-12-20T12:54:49;5.87;95.95
70336;SHT31;57756;47.408;18.940;2023-12-20T12:57:15;5.84;95.82
70336;SHT31;57756;47.408;18.940;2023-12-20T12:59:44;5.78;95.57
70336;SHT31;57756;47.408;18.940;2023-12-20T13:02:11;5.71;95.63
70336;SHT31;57756;47.408;18.940;2023-12-20T13:04:36;5.65;96.09
70336;SHT31;57756;47.408;18.940;2023-12-20T13:07:02;5.67;95.90
70336;SHT31;57756;47.408;18.940;2023-12-20T13:09:27;5.65;95.46
70336;SHT31;57756;47.408;18.940;2023-12-20T13:11:53;5.54;95.96
70336;SHT31;57756;47.408;18.940;2023-12-20T13:14:18;5.46;95.96
70336;SHT31;57756;47.408;18.940;2023-12-20T13:16:44;5.44;96.03
70336;SHT31;57756;47.408;18.940;2023-12-20T13:19:10;5.37;95.63
70336;SHT31;57756;47.408;18.940;2023-12-20T13:21:36;5.34;95.71
70336;SHT31;57756;47.408;18.940;2023-12-20T13:24:01;5.32;95.79
70336;SHT31;57756;47.408;18.940;2023-12-20T13:26:27;5.36;95.37
70336;SHT31;57756;47.408;18.940;2023-12-20T13:28:53;5.27;95.55
70336;SHT31;57756;47.408;18.940;2023-12-20T13:31:19;5.25;95.66
70336;SHT31;57756;47.408;18.940;2023-12-20T13:33:45;5.12;95.84
70336;SHT31;57756;47.408;18.940;2023-12-20T13:36:10;5.16;95.63
70336;SHT31;57756;47.408;18.940;2023-12-20T13:38:36;5.06;95.87
70336;SHT31;57756;47.408;18.940;2023-12-20T13:41:01;4.99;95.72
70336;SHT31;57756;47.408;18.940;2023-12-20T13:43:27;4.93;96.04
70336;SHT31;57756;47.408;18.940;2023-12-20T13:45:52;4.84;96.10
70336;SHT31;57756;47.408;18.940;2023-12-20T13:48:18;4.82;96.34
70336;SHT31;57756;47.408;18.940;2023-12-20T13:50:43;4.74;96.29
70336;SHT31;57756;47.408;18.940;2023-12-20T13:53:09;4.79;96.13
70336;SHT31;57756;47.408;18.940;2023-12-20T13:55:34;4.68;96.45
70336;SHT31;57756;47.408;18.940;2023-12-20T13:58:00;4.65;96.38
70336;SHT31;57756;47.408;18.940;2023-12-20T14:00:25;4.67;96.24
70336;SHT31;57756;47.408;18.940;2023-12-20T14:02:50;4.61;96.41
70336;SHT31;57756;47.408;18.940;2023-12-20T14:05:16;4.56;96.74
70336;SHT31;57756;47.408;18.940;2023-12-20T14:07:46;4.50;96.96
70336;SHT31;57756;47.408;18.940;2023-12-20T14:10:12;4.44;97.08
70336;SHT31;57756;47.408;18.940;2023-12-20T14:12:38;4.47;97.29
70336;SHT31;57756;47.408;18.940;2023-12-20T14:15:04;4.40;97.40
70336;SHT31;57756;47.408;18.940;2023-12-20T14:17:34;4.43;97.40
70336;SHT31;57756;47.408;18.940;2023-12-20T14:20:00;4.46;97.35
70336;SHT31;57756;47.408;18.940;2023-12-20T14:22:25;4.39;97.45
70336;SHT31;57756;47.408;18.940;2023-12-20T14:24:50;4.34;97.36
70336;SHT31;57756;47.408;18.940;2023-12-20T14:27:16;4.36;97.55
70336;SHT31;57756;47.408;18.940;2023-12-20T14:29:41;4.36;97.38
70336;SHT31;57756;47.408;18.940;2023-12-20T14:32:07;4.30;97.62
70336;SHT31;57756;47.408;18.940;2023-12-20T14:34:32;4.28;97.79
70336;SHT31;57756;47.408;18.940;2023-12-20T14:36:57;4.28;97.81
70336;SHT31;57756;47.408;18.940;2023-12-20T14:39:23;4.21;98.23
70336;SHT31;57756;47.408;18.940;2023-12-20T14:41:48;4.20;98.03
70336;SHT31;57756;47.408;18.940;2023-12-20T14:44:14;4.13;98.34
70336;SHT31;57756;47.408;18.940;2023-12-20T14:46:39;4.10;98.53
70336;SHT31;57756;47.408;18.940;2023-12-20T14:49:05;4.13;98.25
70336;SHT31;57756;47.408;18.940;2023-12-20T14:51:30;4.12;98.36
70336;SHT31;57756;47.408;18.940;2023-12-20T14:53:56;4.07;98.69
70336;SHT31;57756;47.408;18.940;2023-12-20T14:56:23;4.05;98.40
70336;SHT31;57756;47.408;18.940;2023-12-20T14:58:49;4.03;98.46
70336;SHT31;57756;47.408;18.940;2023-12-20T15:01:14;4.02;98.66
70336;SHT31;57756;47.408;18.940;2023-12-20T15:03:39;4.05;98.75
70336;SHT31;57756;47.408;18.940;2023-12-20T15:06:06;4.09;98.54
70336;SHT31;57756;47.408;18.940;2023-12-20T15:08:32;4.05;98.78
70336;SHT31;57756;47.408;18.940;2023-12-20T15:10:57;4.03;98.64
70336;SHT31;57756;47.408;18.940;2023-12-20T15:13:24;4.07;98.39
70336;SHT31;57756;47.408;18.940;2023-12-20T15:15:49;4.05;98.60
70336;SHT31;57756;47.408;18.940;2023-12-20T15:18:15;4.03;98.45
70336;SHT31;57756;47.408;18.940;2023-12-20T15:20:40;3.98;98.68
70336;SHT31;57756;47.408;18.940;2023-12-20T15:23:07;3.98;99.00